Arapahoe, North Carolina
Current Conditions -  °F | °C
As of 2:54 PM on Monday 24 Nov 2014 (Local Time) from KNKT Reporting Station
Overcast Overcast  
Wind Chill: 73°   Ceiling: 1200
Heat Index: 73°   Visibility: 2.5mi
Dew Point: 69°   Wind: 21mph
Humidity: 87%   Direction: 220°SW
Pressure: 29.87"   Gusts: 30mph
Location:  35.03°N, 76.83°W
Report Text: KNKT 241954Z 22018G26KT 2 1/2SM OVC012 23/21 A2987 RMK AO2 PK WND 24026/1952 SFC VIS 8 SLP110 T02280206 $
Loading
Personal Weather Stations






























Interactive Weather Map New forecast layout! Learn more

10-Day Weather Forecast

Advertisements
Track Severe Weather on mobile